sensor_id;sensor_type;location;lat;lon;timestamp;P1;durP1;ratioP1;P2;durP2;ratioP2
52404;SDS011;38330;53.066;7.080;2022-09-27T00:02:00;9.30;;;1.35;;
52404;SDS011;38330;53.066;7.080;2022-09-27T00:04:26;5.80;;;1.10;;
52404;SDS011;38330;53.066;7.080;2022-09-27T00:06:51;6.80;;;1.23;;
52404;SDS011;38330;53.066;7.080;2022-09-27T00:09:17;7.70;;;1.38;;
52404;SDS011;38330;53.066;7.080;2022-09-27T00:11:43;6.80;;;1.50;;
52404;SDS011;38330;53.066;7.080;2022-09-27T00:14:14;6.32;;;1.73;;
52404;SDS011;38330;53.066;7.080;2022-09-27T00:19:57;6.43;;;1.20;;
52404;SDS011;38330;53.066;7.080;2022-09-27T00:22:23;8.82;;;1.20;;
52404;SDS011;38330;53.066;7.080;2022-09-27T00:32:17;4.13;;;1.10;;
52404;SDS011;38330;53.066;7.080;2022-09-27T00:34:43;4.88;;;1.30;;
52404;SDS011;38330;53.066;7.080;2022-09-27T00:37:09;3.05;;;1.45;;
52404;SDS011;38330;53.066;7.080;2022-09-27T00:39:35;6.93;;;1.10;;
52404;SDS011;38330;53.066;7.080;2022-09-27T00:42:04;6.35;;;1.13;;
52404;SDS011;38330;53.066;7.080;2022-09-27T00:49:32;3.80;;;0.90;;
52404;SDS011;38330;53.066;7.080;2022-09-27T00:52:09;2.80;;;0.70;;
52404;SDS011;38330;53.066;7.080;2022-09-27T00:54:39;6.32;;;1.20;;
52404;SDS011;38330;53.066;7.080;2022-09-27T00:57:08;5.90;;;1.20;;
52404;SDS011;38330;53.066;7.080;2022-09-27T00:59:36;5.30;;;1.00;;
52404;SDS011;38330;53.066;7.080;2022-09-27T01:02:05;5.40;;;1.00;;
52404;SDS011;38330;53.066;7.080;2022-09-27T01:04:32;3.30;;;0.70;;
52404;SDS011;38330;53.066;7.080;2022-09-27T01:06:58;3.22;;;0.90;;
52404;SDS011;38330;53.066;7.080;2022-09-27T01:09:24;5.53;;;0.80;;
52404;SDS011;38330;53.066;7.080;2022-09-27T01:18:20;3.90;;;0.88;;
52404;SDS011;38330;53.066;7.080;2022-09-27T01:23:15;5.28;;;0.80;;
52404;SDS011;38330;53.066;7.080;2022-09-27T01:35:08;3.63;;;0.68;;
52404;SDS011;38330;53.066;7.080;2022-09-27T01:37:50;2.38;;;0.60;;
52404;SDS011;38330;53.066;7.080;2022-09-27T01:40:31;3.30;;;0.77;;
52404;SDS011;38330;53.066;7.080;2022-09-27T01:46:07;5.82;;;0.73;;
52404;SDS011;38330;53.066;7.080;2022-09-27T01:48:37;3.80;;;0.80;;
52404;SDS011;38330;53.066;7.080;2022-09-27T01:51:19;3.15;;;0.70;;
52404;SDS011;38330;53.066;7.080;2022-09-27T01:53:53;5.50;;;1.10;;
52404;SDS011;38330;53.066;7.080;2022-09-27T01:56:25;7.78;;;0.75;;
52404;SDS011;38330;53.066;7.080;2022-09-27T02:01:37;3.67;;;1.02;;
52404;SDS011;38330;53.066;7.080;2022-09-27T02:04:06;2.15;;;0.75;;
52404;SDS011;38330;53.066;7.080;2022-09-27T02:06:37;3.15;;;0.63;;
52404;SDS011;38330;53.066;7.080;2022-09-27T02:09:16;3.40;;;0.88;;
52404;SDS011;38330;53.066;7.080;2022-09-27T02:11:48;7.43;;;0.90;;
52404;SDS011;38330;53.066;7.080;2022-09-27T02:24:58;3.42;;;0.68;;
52404;SDS011;38330;53.066;7.080;2022-09-27T02:27:47;4.13;;;0.70;;
52404;SDS011;38330;53.066;7.080;2022-09-27T02:30:18;2.63;;;0.80;;
52404;SDS011;38330;53.066;7.080;2022-09-27T02:32:44;8.38;;;1.02;;
52404;SDS011;38330;53.066;7.080;2022-09-27T02:35:14;2.45;;;0.93;;
52404;SDS011;38330;53.066;7.080;2022-09-27T02:38:02;3.20;;;1.80;;
52404;SDS011;38330;53.066;7.080;2022-09-27T02:40:31;5.30;;;0.90;;
52404;SDS011;38330;53.066;7.080;2022-09-27T02:42:58;1.58;;;0.47;;
52404;SDS011;38330;53.066;7.080;2022-09-27T02:45:28;1.98;;;0.60;;
52404;SDS011;38330;53.066;7.080;2022-09-27T02:48:22;5.57;;;0.82;;
52404;SDS011;38330;53.066;7.080;2022-09-27T02:51:09;5.90;;;0.98;;
52404;SDS011;38330;53.066;7.080;2022-09-27T02:56:33;5.57;;;0.88;;
52404;SDS011;38330;53.066;7.080;2022-09-27T03:04:48;2.22;;;0.50;;
52404;SDS011;38330;53.066;7.080;2022-09-27T03:07:15;4.60;;;0.77;;
52404;SDS011;38330;53.066;7.080;2022-09-27T03:09:45;2.95;;;0.57;;
52404;SDS011;38330;53.066;7.080;2022-09-27T03:12:13;3.00;;;0.57;;
52404;SDS011;38330;53.066;7.080;2022-09-27T03:14:44;2.50;;;0.57;;
52404;SDS011;38330;53.066;7.080;2022-09-27T03:17:10;2.25;;;0.63;;
52404;SDS011;38330;53.066;7.080;2022-09-27T03:19:36;3.38;;;0.70;;
52404;SDS011;38330;53.066;7.080;2022-09-27T03:22:02;4.25;;;0.55;;
52404;SDS011;38330;53.066;7.080;2022-09-27T03:24:27;3.03;;;0.55;;
52404;SDS011;38330;53.066;7.080;2022-09-27T03:26:53;1.17;;;0.40;;
52404;SDS011;38330;53.066;7.080;2022-09-27T03:29:19;4.00;;;0.52;;
52404;SDS011;38330;53.066;7.080;2022-09-27T03:31:44;0.95;;;0.43;;
52404;SDS011;38330;53.066;7.080;2022-09-27T03:34:10;4.30;;;0.75;;
52404;SDS011;38330;53.066;7.080;2022-09-27T03:36:36;2.42;;;0.40;;
52404;SDS011;38330;53.066;7.080;2022-09-27T03:39:01;3.30;;;0.60;;
52404;SDS011;38330;53.066;7.080;2022-09-27T03:41:27;4.43;;;0.55;;
52404;SDS011;38330;53.066;7.080;2022-09-27T03:43:53;3.50;;;0.85;;
52404;SDS011;38330;53.066;7.080;2022-09-27T03:46:21;3.40;;;0.50;;
52404;SDS011;38330;53.066;7.080;2022-09-27T03:48:47;4.47;;;0.60;;
52404;SDS011;38330;53.066;7.080;2022-09-27T03:51:13;2.13;;;0.63;;
52404;SDS011;38330;53.066;7.080;2022-09-27T03:53:38;4.22;;;0.85;;
52404;SDS011;38330;53.066;7.080;2022-09-27T03:56:04;3.28;;;0.70;;
52404;SDS011;38330;53.066;7.080;2022-09-27T03:58:30;9.02;;;0.68;;
52404;SDS011;38330;53.066;7.080;2022-09-27T04:00:55;3.97;;;0.63;;
52404;SDS011;38330;53.066;7.080;2022-09-27T04:03:21;5.40;;;0.80;;
52404;SDS011;38330;53.066;7.080;2022-09-27T04:05:47;2.92;;;0.43;;
52404;SDS011;38330;53.066;7.080;2022-09-27T04:08:12;7.80;;;2.20;;
52404;SDS011;38330;53.066;7.080;2022-09-27T04:10:38;2.65;;;0.50;;
52404;SDS011;38330;53.066;7.080;2022-09-27T04:13:04;4.60;;;0.60;;
52404;SDS011;38330;53.066;7.080;2022-09-27T04:15:30;2.60;;;0.50;;
52404;SDS011;38330;53.066;7.080;2022-09-27T04:17:56;4.85;;;0.70;;
52404;SDS011;38330;53.066;7.080;2022-09-27T04:20:22;1.85;;;0.80;;
52404;SDS011;38330;53.066;7.080;2022-09-27T04:22:47;4.43;;;0.60;;
52404;SDS011;38330;53.066;7.080;2022-09-27T04:25:13;4.07;;;0.57;;
52404;SDS011;38330;53.066;7.080;2022-09-27T04:27:39;5.18;;;1.05;;
52404;SDS011;38330;53.066;7.080;2022-09-27T04:30:09;1.77;;;0.47;;
52404;SDS011;38330;53.066;7.080;2022-09-27T04:32:39;2.55;;;0.60;;
52404;SDS011;38330;53.066;7.080;2022-09-27T04:35:06;2.28;;;0.50;;
52404;SDS011;38330;53.066;7.080;2022-09-27T04:37:51;2.83;;;0.60;;
52404;SDS011;38330;53.066;7.080;2022-09-27T04:40:17;4.50;;;0.70;;
52404;SDS011;38330;53.066;7.080;2022-09-27T04:42:43;3.40;;;0.55;;
52404;SDS011;38330;53.066;7.080;2022-09-27T04:45:09;5.45;;;1.38;;
52404;SDS011;38330;53.066;7.080;2022-09-27T04:47:35;1.88;;;0.85;;
52404;SDS011;38330;53.066;7.080;2022-09-27T04:50:01;1.90;;;0.60;;
52404;SDS011;38330;53.066;7.080;2022-09-27T04:52:27;3.25;;;0.55;;
52404;SDS011;38330;53.066;7.080;2022-09-27T04:54:52;2.45;;;0.55;;
52404;SDS011;38330;53.066;7.080;2022-09-27T04:57:18;4.28;;;1.00;;
52404;SDS011;38330;53.066;7.080;2022-09-27T04:59:43;1.42;;;0.50;;
52404;SDS011;38330;53.066;7.080;2022-09-27T05:02:09;4.60;;;0.60;;
52404;SDS011;38330;53.066;7.080;2022-09-27T05:04:35;3.55;;;0.70;;
52404;SDS011;38330;53.066;7.080;2022-09-27T05:07:00;5.35;;;0.65;;
52404;SDS011;38330;53.066;7.080;2022-09-27T05:09:26;6.25;;;0.70;;
52404;SDS011;38330;53.066;7.080;2022-09-27T05:11:52;5.93;;;0.68;;
52404;SDS011;38330;53.066;7.080;2022-09-27T05:14:17;2.88;;;0.57;;
52404;SDS011;38330;53.066;7.080;2022-09-27T05:16:44;3.95;;;0.73;;
52404;SDS011;38330;53.066;7.080;2022-09-27T05:19:10;2.53;;;0.50;;
52404;SDS011;38330;53.066;7.080;2022-09-27T05:21:35;3.17;;;0.70;;
52404;SDS011;38330;53.066;7.080;2022-09-27T05:24:01;4.13;;;0.50;;
52404;SDS011;38330;53.066;7.080;2022-09-27T05:26:26;2.92;;;0.80;;
52404;SDS011;38330;53.066;7.080;2022-09-27T05:28:52;3.22;;;0.55;;
52404;SDS011;38330;53.066;7.080;2022-09-27T05:31:18;2.70;;;0.70;;
52404;SDS011;38330;53.066;7.080;2022-09-27T05:33:43;2.22;;;0.50;;
52404;SDS011;38330;53.066;7.080;2022-09-27T05:36:09;2.33;;;0.50;;
52404;SDS011;38330;53.066;7.080;2022-09-27T05:38:34;3.60;;;0.60;;
52404;SDS011;38330;53.066;7.080;2022-09-27T05:41:01;2.38;;;0.60;;
52404;SDS011;38330;53.066;7.080;2022-09-27T05:43:27;2.83;;;0.73;;
52404;SDS011;38330;53.066;7.080;2022-09-27T05:45:53;3.60;;;0.60;;
52404;SDS011;38330;53.066;7.080;2022-09-27T05:48:19;5.18;;;0.77;;
52404;SDS011;38330;53.066;7.080;2022-09-27T05:50:45;6.07;;;0.55;;
52404;SDS011;38330;53.066;7.080;2022-09-27T05:53:11;2.67;;;0.45;;
52404;SDS011;38330;53.066;7.080;2022-09-27T05:55:37;1.65;;;0.60;;
52404;SDS011;38330;53.066;7.080;2022-09-27T05:58:04;4.05;;;0.93;;
52404;SDS011;38330;53.066;7.080;2022-09-27T06:00:31;7.32;;;0.80;;
52404;SDS011;38330;53.066;7.080;2022-09-27T06:02:59;5.65;;;1.30;;
52404;SDS011;38330;53.066;7.080;2022-09-27T06:05:27;4.22;;;1.45;;
52404;SDS011;38330;53.066;7.080;2022-09-27T06:07:59;5.10;;;1.48;;
52404;SDS011;38330;53.066;7.080;2022-09-27T06:10:26;3.22;;;1.08;;
52404;SDS011;38330;53.066;7.080;2022-09-27T06:12:53;3.40;;;0.88;;
52404;SDS011;38330;53.066;7.080;2022-09-27T06:15:27;4.97;;;1.17;;
52404;SDS011;38330;53.066;7.080;2022-09-27T06:17:54;3.58;;;0.73;;
52404;SDS011;38330;53.066;7.080;2022-09-27T06:20:20;4.35;;;0.90;;
52404;SDS011;38330;53.066;7.080;2022-09-27T06:22:45;1.58;;;0.68;;
52404;SDS011;38330;53.066;7.080;2022-09-27T06:25:11;1.38;;;0.50;;
52404;SDS011;38330;53.066;7.080;2022-09-27T06:27:37;1.77;;;0.45;;
52404;SDS011;38330;53.066;7.080;2022-09-27T06:30:03;1.98;;;0.40;;
52404;SDS011;38330;53.066;7.080;2022-09-27T06:32:29;4.90;;;0.82;;
52404;SDS011;38330;53.066;7.080;2022-09-27T06:34:55;4.43;;;0.60;;
52404;SDS011;38330;53.066;7.080;2022-09-27T06:37:24;2.53;;;0.70;;
52404;SDS011;38330;53.066;7.080;2022-09-27T06:39:51;3.30;;;0.70;;
52404;SDS011;38330;53.066;7.080;2022-09-27T06:42:18;1.27;;;0.55;;
52404;SDS011;38330;53.066;7.080;2022-09-27T06:44:44;1.75;;;0.47;;
52404;SDS011;38330;53.066;7.080;2022-09-27T06:47:14;1.60;;;0.40;;
52404;SDS011;38330;53.066;7.080;2022-09-27T06:49:40;2.15;;;0.60;;
52404;SDS011;38330;53.066;7.080;2022-09-27T06:52:06;1.30;;;0.40;;
52404;SDS011;38330;53.066;7.080;2022-09-27T06:54:32;2.17;;;0.43;;
52404;SDS011;38330;53.066;7.080;2022-09-27T06:56:57;2.67;;;0.90;;
52404;SDS011;38330;53.066;7.080;2022-09-27T06:59:23;3.33;;;0.50;;
52404;SDS011;38330;53.066;7.080;2022-09-27T07:02:07;2.70;;;0.55;;
52404;SDS011;38330;53.066;7.080;2022-09-27T07:04:33;0.98;;;0.43;;
52404;SDS011;38330;53.066;7.080;2022-09-27T07:06:58;1.02;;;0.40;;
52404;SDS011;38330;53.066;7.080;2022-09-27T07:09:24;1.60;;;0.65;;
52404;SDS011;38330;53.066;7.080;2022-09-27T07:11:50;3.70;;;0.40;;
52404;SDS011;38330;53.066;7.080;2022-09-27T07:14:20;2.08;;;1.23;;
52404;SDS011;38330;53.066;7.080;2022-09-27T07:16:48;1.30;;;0.65;;
52404;SDS011;38330;53.066;7.080;2022-09-27T07:19:16;1.42;;;0.40;;
52404;SDS011;38330;53.066;7.080;2022-09-27T07:21:42;1.15;;;0.40;;
52404;SDS011;38330;53.066;7.080;2022-09-27T07:24:09;2.78;;;0.52;;
52404;SDS011;38330;53.066;7.080;2022-09-27T07:26:37;1.27;;;0.45;;
52404;SDS011;38330;53.066;7.080;2022-09-27T07:29:02;2.30;;;0.47;;
52404;SDS011;38330;53.066;7.080;2022-09-27T07:31:28;3.88;;;0.70;;
52404;SDS011;38330;53.066;7.080;2022-09-27T07:33:54;0.57;;;0.38;;
52404;SDS011;38330;53.066;7.080;2022-09-27T07:36:20;2.67;;;0.68;;
52404;SDS011;38330;53.066;7.080;2022-09-27T07:38:45;6.65;;;0.95;;
52404;SDS011;38330;53.066;7.080;2022-09-27T07:41:12;2.45;;;0.57;;
52404;SDS011;38330;53.066;7.080;2022-09-27T07:43:41;2.22;;;0.47;;
52404;SDS011;38330;53.066;7.080;2022-09-27T07:46:10;3.97;;;0.80;;
52404;SDS011;38330;53.066;7.080;2022-09-27T07:48:36;5.57;;;0.73;;
52404;SDS011;38330;53.066;7.080;2022-09-27T07:51:01;4.13;;;0.70;;
52404;SDS011;38330;53.066;7.080;2022-09-27T07:53:27;1.88;;;0.52;;
52404;SDS011;38330;53.066;7.080;2022-09-27T07:55:52;2.50;;;0.70;;
52404;SDS011;38330;53.066;7.080;2022-09-27T07:58:19;3.55;;;0.68;;
52404;SDS011;38330;53.066;7.080;2022-09-27T08:00:50;3.67;;;0.75;;
52404;SDS011;38330;53.066;7.080;2022-09-27T08:03:17;3.75;;;0.52;;
52404;SDS011;38330;53.066;7.080;2022-09-27T08:05:44;4.22;;;0.63;;
52404;SDS011;38330;53.066;7.080;2022-09-27T08:08:11;1.80;;;0.60;;
52404;SDS011;38330;53.066;7.080;2022-09-27T08:10:40;1.55;;;0.50;;
52404;SDS011;38330;53.066;7.080;2022-09-27T08:13:08;2.00;;;0.45;;
52404;SDS011;38330;53.066;7.080;2022-09-27T08:15:35;3.97;;;0.55;;
52404;SDS011;38330;53.066;7.080;2022-09-27T08:18:03;2.08;;;0.50;;
52404;SDS011;38330;53.066;7.080;2022-09-27T08:20:30;3.00;;;0.50;;
52404;SDS011;38330;53.066;7.080;2022-09-27T08:22:55;3.05;;;0.50;;
52404;SDS011;38330;53.066;7.080;2022-09-27T08:25:21;4.25;;;0.60;;
52404;SDS011;38330;53.066;7.080;2022-09-27T08:27:57;2.70;;;0.40;;
52404;SDS011;38330;53.066;7.080;2022-09-27T08:30:25;3.80;;;0.75;;
52404;SDS011;38330;53.066;7.080;2022-09-27T08:32:55;4.32;;;0.50;;
52404;SDS011;38330;53.066;7.080;2022-09-27T08:35:22;2.17;;;0.68;;
52404;SDS011;38330;53.066;7.080;2022-09-27T08:37:52;1.25;;;0.40;;
52404;SDS011;38330;53.066;7.080;2022-09-27T08:40:22;2.40;;;0.43;;
52404;SDS011;38330;53.066;7.080;2022-09-27T08:45:31;1.98;;;0.50;;
52404;SDS011;38330;53.066;7.080;2022-09-27T08:48:04;2.35;;;0.55;;
52404;SDS011;38330;53.066;7.080;2022-09-27T08:53:54;1.55;;;0.60;;
52404;SDS011;38330;53.066;7.080;2022-09-27T08:56:26;2.38;;;0.30;;
52404;SDS011;38330;53.066;7.080;2022-09-27T08:58:55;3.22;;;0.50;;
52404;SDS011;38330;53.066;7.080;2022-09-27T09:01:28;1.50;;;0.43;;
52404;SDS011;38330;53.066;7.080;2022-09-27T09:03:54;2.85;;;0.50;;
52404;SDS011;38330;53.066;7.080;2022-09-27T09:06:42;3.03;;;0.60;;
52404;SDS011;38330;53.066;7.080;2022-09-27T09:09:56;4.10;;;0.50;;
52404;SDS011;38330;53.066;7.080;2022-09-27T09:33:05;0.20;;;0.20;;
52404;SDS011;38330;53.066;7.080;2022-09-27T09:36:10;4.03;;;0.40;;
52404;SDS011;38330;53.066;7.080;2022-09-27T09:38:57;0.98;;;0.40;;
52404;SDS011;38330;53.066;7.080;2022-09-27T09:41:33;0.52;;;0.25;;
52404;SDS011;38330;53.066;7.080;2022-09-27T09:44:16;0.98;;;0.30;;
52404;SDS011;38330;53.066;7.080;2022-09-27T09:46:51;1.88;;;0.50;;
52404;SDS011;38330;53.066;7.080;2022-09-27T09:49:28;0.90;;;0.40;;
52404;SDS011;38330;53.066;7.080;2022-09-27T09:52:21;2.83;;;0.60;;
52404;SDS011;38330;53.066;7.080;2022-09-27T09:57:55;2.70;;;0.50;;
52404;SDS011;38330;53.066;7.080;2022-09-27T10:00:43;1.63;;;0.40;;
52404;SDS011;38330;53.066;7.080;2022-09-27T10:03:16;4.85;;;0.50;;
52404;SDS011;38330;53.066;7.080;2022-09-27T10:05:44;5.25;;;0.65;;
52404;SDS011;38330;53.066;7.080;2022-09-27T10:08:17;0.70;;;0.40;;
52404;SDS011;38330;53.066;7.080;2022-09-27T10:10:50;4.15;;;0.50;;
52404;SDS011;38330;53.066;7.080;2022-09-27T10:13:17;2.17;;;0.30;;
52404;SDS011;38330;53.066;7.080;2022-09-27T10:16:05;3.45;;;0.65;;
52404;SDS011;38330;53.066;7.080;2022-09-27T10:18:46;3.60;;;0.63;;
52404;SDS011;38330;53.066;7.080;2022-09-27T10:21:20;0.90;;;0.77;;
52404;SDS011;38330;53.066;7.080;2022-09-27T10:26:56;3.13;;;0.80;;
52404;SDS011;38330;53.066;7.080;2022-09-27T10:29:27;1.85;;;0.32;;
52404;SDS011;38330;53.066;7.080;2022-09-27T10:31:59;2.78;;;0.47;;
52404;SDS011;38330;53.066;7.080;2022-09-27T10:39:45;1.52;;;0.50;;
52404;SDS011;38330;53.066;7.080;2022-09-27T10:42:48;1.60;;;0.40;;
52404;SDS011;38330;53.066;7.080;2022-09-27T10:45:30;2.60;;;1.27;;
52404;SDS011;38330;53.066;7.080;2022-09-27T10:48:08;2.60;;;0.60;;
52404;SDS011;38330;53.066;7.080;2022-09-27T10:50:57;2.47;;;0.47;;
52404;SDS011;38330;53.066;7.080;2022-09-27T10:53:25;1.83;;;0.40;;
52404;SDS011;38330;53.066;7.080;2022-09-27T10:55:58;1.20;;;0.40;;
52404;SDS011;38330;53.066;7.080;2022-09-27T10:58:34;1.70;;;0.40;;
52404;SDS011;38330;53.066;7.080;2022-09-27T11:01:07;0.98;;;0.40;;
52404;SDS011;38330;53.066;7.080;2022-09-27T11:03:45;4.07;;;0.60;;
52404;SDS011;38330;53.066;7.080;2022-09-27T11:08:43;3.67;;;0.52;;
52404;SDS011;38330;53.066;7.080;2022-09-27T11:13:41;2.03;;;0.60;;
52404;SDS011;38330;53.066;7.080;2022-09-27T11:22:19;1.45;;;0.30;;
52404;SDS011;38330;53.066;7.080;2022-09-27T11:27:45;0.98;;;0.28;;
52404;SDS011;38330;53.066;7.080;2022-09-27T11:30:34;0.75;;;0.30;;
52404;SDS011;38330;53.066;7.080;2022-09-27T11:33:59;1.38;;;0.38;;
52404;SDS011;38330;53.066;7.080;2022-09-27T11:41:50;0.65;;;0.28;;
52404;SDS011;38330;53.066;7.080;2022-09-27T12:00:22;1.67;;;0.38;;
52404;SDS011;38330;53.066;7.080;2022-09-27T12:07:03;0.65;;;0.40;;
52404;SDS011;38330;53.066;7.080;2022-09-27T12:17:17;1.48;;;0.35;;
52404;SDS011;38330;53.066;7.080;2022-09-27T12:20:30;0.65;;;0.30;;
52404;SDS011;38330;53.066;7.080;2022-09-27T12:23:28;2.55;;;0.30;;
52404;SDS011;38330;53.066;7.080;2022-09-27T12:26:21;0.98;;;0.20;;
52404;SDS011;38330;53.066;7.080;2022-09-27T12:29:22;0.20;;;0.20;;
52404;SDS011;38330;53.066;7.080;2022-09-27T12:35:31;0.95;;;0.30;;
52404;SDS011;38330;53.066;7.080;2022-09-27T13:01:15;0.80;;;0.32;;
52404;SDS011;38330;53.066;7.080;2022-09-27T13:14:09;3.35;;;0.40;;
52404;SDS011;38330;53.066;7.080;2022-09-27T13:26:20;0.52;;;0.30;;
52404;SDS011;38330;53.066;7.080;2022-09-27T13:29:31;1.83;;;0.38;;
52404;SDS011;38330;53.066;7.080;2022-09-27T13:32:17;3.35;;;0.60;;
52404;SDS011;38330;53.066;7.080;2022-09-27T13:35:20;0.80;;;0.40;;
52404;SDS011;38330;53.066;7.080;2022-09-27T13:37:57;0.85;;;0.32;;
52404;SDS011;38330;53.066;7.080;2022-09-27T13:40:54;1.65;;;0.35;;
52404;SDS011;38330;53.066;7.080;2022-09-27T13:47:25;2.22;;;0.30;;
52404;SDS011;38330;53.066;7.080;2022-09-27T13:50:44;0.20;;;0.20;;
52404;SDS011;38330;53.066;7.080;2022-09-27T13:54:00;1.42;;;0.32;;
52404;SDS011;38330;53.066;7.080;2022-09-27T14:00:42;0.55;;;0.30;;
52404;SDS011;38330;53.066;7.080;2022-09-27T14:06:04;1.35;;;0.35;;
52404;SDS011;38330;53.066;7.080;2022-09-27T14:11:36;1.30;;;0.50;;
52404;SDS011;38330;53.066;7.080;2022-09-27T14:14:13;1.17;;;0.30;;
52404;SDS011;38330;53.066;7.080;2022-09-27T14:16:47;1.30;;;0.40;;
52404;SDS011;38330;53.066;7.080;2022-09-27T14:19:23;2.00;;;0.50;;
52404;SDS011;38330;53.066;7.080;2022-09-27T14:21:57;1.65;;;0.30;;
52404;SDS011;38330;53.066;7.080;2022-09-27T14:24:30;0.90;;;0.30;;
52404;SDS011;38330;53.066;7.080;2022-09-27T14:30:05;1.20;;;0.40;;
52404;SDS011;38330;53.066;7.080;2022-09-27T14:32:56;2.90;;;0.30;;
52404;SDS011;38330;53.066;7.080;2022-09-27T14:35:48;0.68;;;0.22;;
52404;SDS011;38330;53.066;7.080;2022-09-27T14:38:37;0.20;;;0.20;;
52404;SDS011;38330;53.066;7.080;2022-09-27T14:41:12;2.03;;;0.25;;
52404;SDS011;38330;53.066;7.080;2022-09-27T14:43:48;0.30;;;0.30;;
52404;SDS011;38330;53.066;7.080;2022-09-27T14:46:25;0.20;;;0.20;;
52404;SDS011;38330;53.066;7.080;2022-09-27T14:48:53;1.00;;;0.32;;
52404;SDS011;38330;53.066;7.080;2022-09-27T14:51:23;0.47;;;0.35;;
52404;SDS011;38330;53.066;7.080;2022-09-27T14:53:53;0.38;;;0.20;;
52404;SDS011;38330;53.066;7.080;2022-09-27T14:56:30;0.77;;;0.30;;
52404;SDS011;38330;53.066;7.080;2022-09-27T14:59:15;2.08;;;0.40;;
52404;SDS011;38330;53.066;7.080;2022-09-27T15:01:48;0.60;;;0.25;;
52404;SDS011;38330;53.066;7.080;2022-09-27T15:04:15;2.75;;;0.28;;
52404;SDS011;38330;53.066;7.080;2022-09-27T15:06:41;3.15;;;0.40;;
52404;SDS011;38330;53.066;7.080;2022-09-27T15:09:14;0.75;;;0.40;;
52404;SDS011;38330;53.066;7.080;2022-09-27T15:11:43;0.20;;;0.20;;
52404;SDS011;38330;53.066;7.080;2022-09-27T15:16:44;0.22;;;0.22;;
52404;SDS011;38330;53.066;7.080;2022-09-27T15:19:16;1.88;;;0.35;;
52404;SDS011;38330;53.066;7.080;2022-09-27T15:21:47;1.10;;;0.22;;
52404;SDS011;38330;53.066;7.080;2022-09-27T15:24:35;1.45;;;0.40;;
52404;SDS011;38330;53.066;7.080;2022-09-27T15:27:13;0.85;;;0.50;;
52404;SDS011;38330;53.066;7.080;2022-09-27T15:32:13;0.63;;;0.30;;
52404;SDS011;38330;53.066;7.080;2022-09-27T15:34:41;0.95;;;0.50;;
52404;SDS011;38330;53.066;7.080;2022-09-27T15:37:22;1.50;;;0.40;;
52404;SDS011;38330;53.066;7.080;2022-09-27T15:39:51;1.65;;;0.50;;
52404;SDS011;38330;53.066;7.080;2022-09-27T15:42:19;1.25;;;0.45;;
52404;SDS011;38330;53.066;7.080;2022-09-27T15:44:46;0.38;;;0.30;;
52404;SDS011;38330;53.066;7.080;2022-09-27T15:52:53;0.40;;;0.40;;
52404;SDS011;38330;53.066;7.080;2022-09-27T15:55:26;3.60;;;0.60;;
52404;SDS011;38330;53.066;7.080;2022-09-27T15:58:01;3.67;;;0.60;;
52404;SDS011;38330;53.066;7.080;2022-09-27T16:03:21;1.10;;;0.50;;
52404;SDS011;38330;53.066;7.080;2022-09-27T16:05:55;0.60;;;0.47;;
52404;SDS011;38330;53.066;7.080;2022-09-27T16:08:22;1.38;;;0.38;;
52404;SDS011;38330;53.066;7.080;2022-09-27T16:10:49;1.95;;;0.63;;
52404;SDS011;38330;53.066;7.080;2022-09-27T16:13:17;2.05;;;0.50;;
52404;SDS011;38330;53.066;7.080;2022-09-27T16:15:45;1.30;;;0.50;;
52404;SDS011;38330;53.066;7.080;2022-09-27T16:18:16;1.67;;;0.57;;
52404;SDS011;38330;53.066;7.080;2022-09-27T16:20:43;1.58;;;0.70;;
52404;SDS011;38330;53.066;7.080;2022-09-27T16:23:09;3.00;;;0.55;;
52404;SDS011;38330;53.066;7.080;2022-09-27T16:25:35;2.40;;;0.50;;
52404;SDS011;38330;53.066;7.080;2022-09-27T16:28:01;1.23;;;0.60;;
52404;SDS011;38330;53.066;7.080;2022-09-27T16:30:28;3.38;;;0.50;;
52404;SDS011;38330;53.066;7.080;2022-09-27T16:32:54;2.53;;;0.60;;
52404;SDS011;38330;53.066;7.080;2022-09-27T16:35:21;3.45;;;0.45;;
52404;SDS011;38330;53.066;7.080;2022-09-27T16:37:47;1.73;;;0.52;;
52404;SDS011;38330;53.066;7.080;2022-09-27T16:40:17;1.27;;;0.47;;
52404;SDS011;38330;53.066;7.080;2022-09-27T16:42:46;1.92;;;0.50;;
52404;SDS011;38330;53.066;7.080;2022-09-27T16:45:12;1.13;;;0.60;;
52404;SDS011;38330;53.066;7.080;2022-09-27T16:47:41;4.10;;;0.60;;
52404;SDS011;38330;53.066;7.080;2022-09-27T16:50:08;1.20;;;0.60;;
52404;SDS011;38330;53.066;7.080;2022-09-27T16:52:54;1.05;;;0.60;;
52404;SDS011;38330;53.066;7.080;2022-09-27T16:55:20;1.52;;;0.50;;
52404;SDS011;38330;53.066;7.080;2022-09-27T16:57:47;2.15;;;0.50;;
52404;SDS011;38330;53.066;7.080;2022-09-27T17:00:15;0.50;;;0.30;;
52404;SDS011;38330;53.066;7.080;2022-09-27T17:02:42;2.65;;;0.80;;
52404;SDS011;38330;53.066;7.080;2022-09-27T17:05:12;1.90;;;0.60;;
52404;SDS011;38330;53.066;7.080;2022-09-27T17:07:40;1.30;;;0.55;;
52404;SDS011;38330;53.066;7.080;2022-09-27T17:10:09;3.63;;;0.63;;
52404;SDS011;38330;53.066;7.080;2022-09-27T17:12:35;1.40;;;0.70;;
52404;SDS011;38330;53.066;7.080;2022-09-27T17:15:03;1.83;;;0.60;;
52404;SDS011;38330;53.066;7.080;2022-09-27T17:17:30;3.10;;;0.63;;
52404;SDS011;38330;53.066;7.080;2022-09-27T17:19:55;2.00;;;0.70;;
52404;SDS011;38330;53.066;7.080;2022-09-27T17:22:23;3.67;;;0.68;;
52404;SDS011;38330;53.066;7.080;2022-09-27T17:24:54;3.47;;;0.85;;
52404;SDS011;38330;53.066;7.080;2022-09-27T17:27:26;6.22;;;1.00;;
52404;SDS011;38330;53.066;7.080;2022-09-27T17:29:53;2.35;;;0.80;;
52404;SDS011;38330;53.066;7.080;2022-09-27T17:32:24;2.22;;;0.85;;
52404;SDS011;38330;53.066;7.080;2022-09-27T17:34:50;3.75;;;0.80;;
52404;SDS011;38330;53.066;7.080;2022-09-27T17:37:18;3.38;;;0.93;;
52404;SDS011;38330;53.066;7.080;2022-09-27T17:39:49;6.20;;;1.70;;
52404;SDS011;38330;53.066;7.080;2022-09-27T17:42:18;3.35;;;0.93;;
52404;SDS011;38330;53.066;7.080;2022-09-27T17:44:43;2.58;;;0.90;;
52404;SDS011;38330;53.066;7.080;2022-09-27T17:47:11;1.67;;;0.80;;
52404;SDS011;38330;53.066;7.080;2022-09-27T17:50:01;3.55;;;0.80;;
52404;SDS011;38330;53.066;7.080;2022-09-27T17:52:48;3.40;;;1.20;;
52404;SDS011;38330;53.066;7.080;2022-09-27T17:55:15;3.85;;;1.02;;
52404;SDS011;38330;53.066;7.080;2022-09-27T17:57:41;3.08;;;1.00;;
52404;SDS011;38330;53.066;7.080;2022-09-27T18:00:07;3.00;;;1.00;;
52404;SDS011;38330;53.066;7.080;2022-09-27T18:02:33;4.97;;;1.10;;
52404;SDS011;38330;53.066;7.080;2022-09-27T18:05:01;3.97;;;1.42;;
52404;SDS011;38330;53.066;7.080;2022-09-27T18:07:27;3.35;;;1.23;;
52404;SDS011;38330;53.066;7.080;2022-09-27T18:09:53;4.43;;;1.20;;
52404;SDS011;38330;53.066;7.080;2022-09-27T18:12:19;3.58;;;1.02;;
52404;SDS011;38330;53.066;7.080;2022-09-27T18:15:00;3.78;;;1.27;;
52404;SDS011;38330;53.066;7.080;2022-09-27T18:17:26;3.13;;;0.90;;
52404;SDS011;38330;53.066;7.080;2022-09-27T18:19:52;4.00;;;1.45;;
52404;SDS011;38330;53.066;7.080;2022-09-27T18:22:20;3.10;;;1.33;;
52404;SDS011;38330;53.066;7.080;2022-09-27T18:24:46;4.80;;;1.10;;
52404;SDS011;38330;53.066;7.080;2022-09-27T18:27:12;6.88;;;1.20;;
52404;SDS011;38330;53.066;7.080;2022-09-27T18:29:42;5.45;;;1.35;;
52404;SDS011;38330;53.066;7.080;2022-09-27T18:32:08;3.08;;;1.20;;
52404;SDS011;38330;53.066;7.080;2022-09-27T18:34:33;4.43;;;1.20;;
52404;SDS011;38330;53.066;7.080;2022-09-27T18:36:59;5.15;;;1.38;;
52404;SDS011;38330;53.066;7.080;2022-09-27T18:39:25;3.30;;;1.30;;
52404;SDS011;38330;53.066;7.080;2022-09-27T18:41:50;4.07;;;1.83;;
52404;SDS011;38330;53.066;7.080;2022-09-27T18:44:17;2.40;;;1.20;;
52404;SDS011;38330;53.066;7.080;2022-09-27T18:46:43;4.63;;;1.20;;
52404;SDS011;38330;53.066;7.080;2022-09-27T18:49:11;5.03;;;1.30;;
52404;SDS011;38330;53.066;7.080;2022-09-27T18:51:38;7.47;;;1.60;;
52404;SDS011;38330;53.066;7.080;2022-09-27T18:54:28;3.47;;;1.13;;